sensor_id;sensor_type;location;lat;lon;timestamp;pressure;altitude;pressure_sealevel;temperature;humidity
59825;BME280;45703;50.898;6.054;2023-03-18T00:02:02;99443.38;;;11.98;77.15
59825;BME280;45703;50.898;6.054;2023-03-18T00:04:28;99442.56;;;11.98;77.81
59825;BME280;45703;50.898;6.054;2023-03-18T00:06:53;99433.16;;;11.95;78.31
59825;BME280;45703;50.898;6.054;2023-03-18T00:09:19;99444.34;;;11.92;78.64
59825;BME280;45703;50.898;6.054;2023-03-18T00:11:45;99444.56;;;11.86;78.68
59825;BME280;45703;50.898;6.054;2023-03-18T00:14:11;99450.22;;;11.89;78.91
59825;BME280;45703;50.898;6.054;2023-03-18T00:16:36;99446.97;;;11.87;79.20
59825;BME280;45703;50.898;6.054;2023-03-18T00:19:02;99446.97;;;11.87;79.07
59825;BME280;45703;50.898;6.054;2023-03-18T00:21:29;99446.19;;;11.87;78.95
59825;BME280;45703;50.898;6.054;2023-03-18T00:23:55;99448.03;;;11.86;78.84
59825;BME280;45703;50.898;6.054;2023-03-18T00:26:23;99446.34;;;11.80;79.04
59825;BME280;45703;50.898;6.054;2023-03-18T00:28:49;99459.28;;;11.88;78.59
59825;BME280;45703;50.898;6.054;2023-03-18T00:31:14;99471.03;;;11.87;78.55
59825;BME280;45703;50.898;6.054;2023-03-18T00:33:41;99483.34;;;11.88;78.46
59825;BME280;45703;50.898;6.054;2023-03-18T00:36:10;99489.28;;;11.90;79.23
59825;BME280;45703;50.898;6.054;2023-03-18T00:38:44;99483.13;;;11.90;80.09
59825;BME280;45703;50.898;6.054;2023-03-18T00:41:10;99470.53;;;11.90;79.63
59825;BME280;45703;50.898;6.054;2023-03-18T00:43:38;99467.88;;;11.90;81.78
59825;BME280;45703;50.898;6.054;2023-03-18T00:46:16;99463.09;;;11.92;80.21
59825;BME280;45703;50.898;6.054;2023-03-18T00:48:43;99461.72;;;11.90;80.56
59825;BME280;45703;50.898;6.054;2023-03-18T00:51:10;99461.22;;;11.93;81.18
59825;BME280;45703;50.898;6.054;2023-03-18T00:53:43;99451.31;;;11.93;81.59
59825;BME280;45703;50.898;6.054;2023-03-18T00:56:09;99450.03;;;11.96;80.47
59825;BME280;45703;50.898;6.054;2023-03-18T00:58:34;99454.56;;;11.95;83.09
59825;BME280;45703;50.898;6.054;2023-03-18T01:01:02;99435.03;;;11.95;83.63
59825;BME280;45703;50.898;6.054;2023-03-18T01:03:27;99422.13;;;11.87;83.79
59825;BME280;45703;50.898;6.054;2023-03-18T01:05:53;99435.47;;;11.87;84.15
59825;BME280;45703;50.898;6.054;2023-03-18T01:08:19;99434.09;;;11.84;84.75
59825;BME280;45703;50.898;6.054;2023-03-18T01:10:46;99430.88;;;11.82;85.19
59825;BME280;45703;50.898;6.054;2023-03-18T01:13:12;99437.16;;;11.71;85.40
59825;BME280;45703;50.898;6.054;2023-03-18T01:15:38;99437.66;;;11.68;86.25
59825;BME280;45703;50.898;6.054;2023-03-18T01:18:04;99430.56;;;11.57;86.33
59825;BME280;45703;50.898;6.054;2023-03-18T01:20:30;99446.81;;;11.56;86.33
59825;BME280;45703;50.898;6.054;2023-03-18T01:22:55;99442.69;;;11.48;85.91
59825;BME280;45703;50.898;6.054;2023-03-18T01:25:22;99438.78;;;11.40;85.34
59825;BME280;45703;50.898;6.054;2023-03-18T01:27:48;99441.16;;;11.36;86.19
59825;BME280;45703;50.898;6.054;2023-03-18T01:30:13;99442.38;;;11.29;86.32
59825;BME280;45703;50.898;6.054;2023-03-18T01:32:39;99447.56;;;11.19;86.72
59825;BME280;45703;50.898;6.054;2023-03-18T01:35:05;99433.81;;;11.10;87.01
59825;BME280;45703;50.898;6.054;2023-03-18T01:37:31;99443.38;;;11.06;86.41
59825;BME280;45703;50.898;6.054;2023-03-18T01:39:57;99451.31;;;11.01;86.58
59825;BME280;45703;50.898;6.054;2023-03-18T01:42:23;99445.66;;;10.98;86.94
59825;BME280;45703;50.898;6.054;2023-03-18T01:44:49;99446.84;;;10.90;87.46
59825;BME280;45703;50.898;6.054;2023-03-18T01:47:15;99450.72;;;10.83;87.00
59825;BME280;45703;50.898;6.054;2023-03-18T01:49:45;99449.03;;;10.77;87.09
59825;BME280;45703;50.898;6.054;2023-03-18T01:52:15;99453.72;;;10.70;87.05
59825;BME280;45703;50.898;6.054;2023-03-18T01:54:48;99456.28;;;10.65;86.29
59825;BME280;45703;50.898;6.054;2023-03-18T01:57:17;99454.00;;;10.57;87.04
59825;BME280;45703;50.898;6.054;2023-03-18T01:59:44;99444.78;;;10.48;88.00
59825;BME280;45703;50.898;6.054;2023-03-18T02:02:15;99457.53;;;10.46;86.83
59825;BME280;45703;50.898;6.054;2023-03-18T02:04:44;99445.41;;;10.38;87.17
59825;BME280;45703;50.898;6.054;2023-03-18T02:07:17;99457.59;;;10.34;87.08
59825;BME280;45703;50.898;6.054;2023-03-18T02:09:44;99455.41;;;10.31;86.64
59825;BME280;45703;50.898;6.054;2023-03-18T02:12:12;99460.41;;;10.28;88.88
59825;BME280;45703;50.898;6.054;2023-03-18T02:14:39;99450.69;;;10.22;87.53
59825;BME280;45703;50.898;6.054;2023-03-18T02:17:09;99455.88;;;10.28;85.84
59825;BME280;45703;50.898;6.054;2023-03-18T02:22:28;99463.06;;;10.28;88.29
59825;BME280;45703;50.898;6.054;2023-03-18T02:27:36;99473.97;;;10.26;89.16
59825;BME280;45703;50.898;6.054;2023-03-18T02:30:08;99457.63;;;10.23;88.72
59825;BME280;45703;50.898;6.054;2023-03-18T02:32:35;99465.16;;;10.26;89.12
59825;BME280;45703;50.898;6.054;2023-03-18T02:35:05;99463.53;;;10.25;89.22
59825;BME280;45703;50.898;6.054;2023-03-18T02:37:32;99464.28;;;10.20;89.00
59825;BME280;45703;50.898;6.054;2023-03-18T02:42:46;99460.19;;;10.18;89.62
59825;BME280;45703;50.898;6.054;2023-03-18T02:45:22;99470.88;;;10.18;89.63
59825;BME280;45703;50.898;6.054;2023-03-18T02:47:56;99464.72;;;10.17;90.23
59825;BME280;45703;50.898;6.054;2023-03-18T02:50:23;99463.56;;;10.13;90.33
59825;BME280;45703;50.898;6.054;2023-03-18T02:52:49;99466.81;;;10.15;90.42
59825;BME280;45703;50.898;6.054;2023-03-18T02:55:14;99465.19;;;10.14;90.44
59825;BME280;45703;50.898;6.054;2023-03-18T02:57:40;99477.25;;;10.17;90.55
59825;BME280;45703;50.898;6.054;2023-03-18T03:00:06;99467.63;;;10.16;90.76
59825;BME280;45703;50.898;6.054;2023-03-18T03:02:32;99462.88;;;10.18;90.69
59825;BME280;45703;50.898;6.054;2023-03-18T03:04:58;99475.16;;;10.19;90.89
59825;BME280;45703;50.898;6.054;2023-03-18T03:07:26;99476.78;;;10.20;91.41
59825;BME280;45703;50.898;6.054;2023-03-18T03:09:53;99478.63;;;10.19;91.94
59825;BME280;45703;50.898;6.054;2023-03-18T03:12:18;99481.06;;;10.21;91.45
59825;BME280;45703;50.898;6.054;2023-03-18T03:14:44;99479.44;;;10.20;91.27
59825;BME280;45703;50.898;6.054;2023-03-18T03:17:09;99476.78;;;10.20;91.20
59825;BME280;45703;50.898;6.054;2023-03-18T03:19:35;99475.38;;;10.17;91.20
59825;BME280;45703;50.898;6.054;2023-03-18T03:22:01;99484.31;;;10.23;91.03
59825;BME280;45703;50.898;6.054;2023-03-18T03:24:26;99493.34;;;10.22;91.44
59825;BME280;45703;50.898;6.054;2023-03-18T03:26:52;99494.97;;;10.23;90.55
59825;BME280;45703;50.898;6.054;2023-03-18T03:29:18;99493.00;;;10.18;90.30
59825;BME280;45703;50.898;6.054;2023-03-18T03:31:44;99502.75;;;10.24;91.17
59825;BME280;45703;50.898;6.054;2023-03-18T03:34:10;99508.88;;;10.25;90.77
59825;BME280;45703;50.898;6.054;2023-03-18T03:36:36;99501.22;;;10.28;90.21
59825;BME280;45703;50.898;6.054;2023-03-18T03:39:02;99507.16;;;10.30;89.36
59825;BME280;45703;50.898;6.054;2023-03-18T03:41:28;99508.75;;;10.31;90.89
59825;BME280;45703;50.898;6.054;2023-03-18T03:43:53;99513.84;;;10.33;91.32
59825;BME280;45703;50.898;6.054;2023-03-18T03:46:19;99519.75;;;10.35;91.34
59825;BME280;45703;50.898;6.054;2023-03-18T03:48:45;99513.16;;;10.37;90.85
59825;BME280;45703;50.898;6.054;2023-03-18T03:51:12;99515.66;;;10.44;89.64
59825;BME280;45703;50.898;6.054;2023-03-18T03:53:39;99517.41;;;10.50;88.92
59825;BME280;45703;50.898;6.054;2023-03-18T03:56:05;99521.53;;;10.57;90.04
59825;BME280;45703;50.898;6.054;2023-03-18T03:58:32;99518.72;;;10.64;89.09
59825;BME280;45703;50.898;6.054;2023-03-18T04:00:58;99519.38;;;10.71;89.62
59825;BME280;45703;50.898;6.054;2023-03-18T04:03:24;99522.50;;;10.79;88.75
59825;BME280;45703;50.898;6.054;2023-03-18T04:05:50;99527.19;;;10.89;88.00
59825;BME280;45703;50.898;6.054;2023-03-18T04:08:15;99537.03;;;11.00;88.04
59825;BME280;45703;50.898;6.054;2023-03-18T04:10:41;99526.00;;;10.96;89.79
59825;BME280;45703;50.898;6.054;2023-03-18T04:13:07;99540.34;;;11.07;89.02
59825;BME280;45703;50.898;6.054;2023-03-18T04:15:33;99547.47;;;11.18;87.39
59825;BME280;45703;50.898;6.054;2023-03-18T04:17:59;99538.41;;;11.19;86.68
59825;BME280;45703;50.898;6.054;2023-03-18T04:20:31;99525.06;;;11.19;87.68
59825;BME280;45703;50.898;6.054;2023-03-18T04:22:58;99554.13;;;11.32;87.30
59825;BME280;45703;50.898;6.054;2023-03-18T04:25:23;99551.03;;;11.40;87.84
59825;BME280;45703;50.898;6.054;2023-03-18T04:27:49;99554.75;;;11.39;86.59
59825;BME280;45703;50.898;6.054;2023-03-18T04:30:16;99556.94;;;11.42;87.36
59825;BME280;45703;50.898;6.054;2023-03-18T04:32:44;99557.50;;;11.43;86.42
59825;BME280;45703;50.898;6.054;2023-03-18T04:35:10;99565.53;;;11.43;86.22
59825;BME280;45703;50.898;6.054;2023-03-18T04:37:36;99559.63;;;11.42;87.65
59825;BME280;45703;50.898;6.054;2023-03-18T04:40:02;99562.56;;;11.40;86.47
59825;BME280;45703;50.898;6.054;2023-03-18T04:42:29;99561.41;;;11.36;86.93
59825;BME280;45703;50.898;6.054;2023-03-18T04:44:54;99562.22;;;11.37;87.31
59825;BME280;45703;50.898;6.054;2023-03-18T04:47:19;99570.97;;;11.32;87.60
59825;BME280;45703;50.898;6.054;2023-03-18T04:49:45;99565.28;;;11.29;87.19
59825;BME280;45703;50.898;6.054;2023-03-18T04:52:10;99564.63;;;11.22;88.31
59825;BME280;45703;50.898;6.054;2023-03-18T04:54:36;99570.38;;;11.14;89.76
59825;BME280;45703;50.898;6.054;2023-03-18T04:57:03;99564.94;;;11.09;88.24
59825;BME280;45703;50.898;6.054;2023-03-18T04:59:30;99558.97;;;11.02;88.25
59825;BME280;45703;50.898;6.054;2023-03-18T05:01:56;99564.28;;;11.02;87.54
59825;BME280;45703;50.898;6.054;2023-03-18T05:04:22;99563.28;;;10.91;88.37
59825;BME280;45703;50.898;6.054;2023-03-18T05:06:48;99568.94;;;10.95;88.67
59825;BME280;45703;50.898;6.054;2023-03-18T05:09:13;99573.97;;;10.91;90.30
59825;BME280;45703;50.898;6.054;2023-03-18T05:11:38;99568.78;;;10.85;88.46
59825;BME280;45703;50.898;6.054;2023-03-18T05:14:04;99569.72;;;10.79;89.94
59825;BME280;45703;50.898;6.054;2023-03-18T05:16:29;99573.56;;;10.71;89.18
59825;BME280;45703;50.898;6.054;2023-03-18T05:18:55;99570.91;;;10.71;89.48
59825;BME280;45703;50.898;6.054;2023-03-18T05:21:20;99573.47;;;10.66;88.89
59825;BME280;45703;50.898;6.054;2023-03-18T05:23:46;99569.44;;;10.64;89.42
59825;BME280;45703;50.898;6.054;2023-03-18T05:26:11;99574.44;;;10.60;89.04
59825;BME280;45703;50.898;6.054;2023-03-18T05:28:37;99583.75;;;10.58;90.28
59825;BME280;45703;50.898;6.054;2023-03-18T05:31:04;99574.69;;;10.59;89.87
59825;BME280;45703;50.898;6.054;2023-03-18T05:33:29;99564.38;;;10.51;89.39
59825;BME280;45703;50.898;6.054;2023-03-18T05:35:55;99574.59;;;10.54;89.13
59825;BME280;45703;50.898;6.054;2023-03-18T05:38:21;99571.91;;;10.54;89.80
59825;BME280;45703;50.898;6.054;2023-03-18T05:40:46;99567.97;;;10.45;90.60
59825;BME280;45703;50.898;6.054;2023-03-18T05:43:11;99563.13;;;10.42;91.86
59825;BME280;45703;50.898;6.054;2023-03-18T05:45:38;99580.41;;;10.39;89.77
59825;BME280;45703;50.898;6.054;2023-03-18T05:48:04;99567.09;;;10.28;90.52
59825;BME280;45703;50.898;6.054;2023-03-18T05:50:32;99574.88;;;10.29;92.58
59825;BME280;45703;50.898;6.054;2023-03-18T05:52:58;99573.16;;;10.23;91.34
59825;BME280;45703;50.898;6.054;2023-03-18T05:55:25;99566.88;;;10.18;89.83
59825;BME280;45703;50.898;6.054;2023-03-18T05:57:52;99575.47;;;10.20;92.71
59825;BME280;45703;50.898;6.054;2023-03-18T06:00:18;99576.41;;;10.14;91.63
59825;BME280;45703;50.898;6.054;2023-03-18T06:02:44;99576.41;;;10.14;92.78
59825;BME280;45703;50.898;6.054;2023-03-18T06:05:11;99564.81;;;10.08;92.58
59825;BME280;45703;50.898;6.054;2023-03-18T06:07:37;99566.69;;;10.08;93.11
59825;BME280;45703;50.898;6.054;2023-03-18T06:10:03;99573.38;;;10.10;93.82
59825;BME280;45703;50.898;6.054;2023-03-18T06:12:28;99570.72;;;10.10;91.80
59825;BME280;45703;50.898;6.054;2023-03-18T06:14:54;99574.78;;;10.13;91.83
59825;BME280;45703;50.898;6.054;2023-03-18T06:17:20;99572.44;;;10.16;90.75
59825;BME280;45703;50.898;6.054;2023-03-18T06:19:46;99572.81;;;10.20;93.30
59825;BME280;45703;50.898;6.054;2023-03-18T06:22:13;99560.41;;;10.14;94.01
59825;BME280;45703;50.898;6.054;2023-03-18T06:24:39;99578.72;;;10.22;91.82
59825;BME280;45703;50.898;6.054;2023-03-18T06:27:05;99578.59;;;10.28;90.66
59825;BME280;45703;50.898;6.054;2023-03-18T06:29:31;99586.34;;;10.30;91.79
59825;BME280;45703;50.898;6.054;2023-03-18T06:31:56;99587.75;;;10.32;91.67
59825;BME280;45703;50.898;6.054;2023-03-18T06:34:22;99595.47;;;10.45;91.12
59825;BME280;45703;50.898;6.054;2023-03-18T06:36:47;99594.78;;;10.50;91.15
59825;BME280;45703;50.898;6.054;2023-03-18T06:39:13;99606.03;;;10.52;91.74
59825;BME280;45703;50.898;6.054;2023-03-18T06:41:38;99597.88;;;10.58;89.52
59825;BME280;45703;50.898;6.054;2023-03-18T06:44:04;99595.56;;;10.62;90.06
59825;BME280;45703;50.898;6.054;2023-03-18T06:46:30;99602.16;;;10.71;89.76
59825;BME280;45703;50.898;6.054;2023-03-18T06:48:56;99609.78;;;10.79;89.91
59825;BME280;45703;50.898;6.054;2023-03-18T06:51:21;99614.06;;;10.80;90.59
59825;BME280;45703;50.898;6.054;2023-03-18T06:53:47;99606.63;;;10.82;90.34
59825;BME280;45703;50.898;6.054;2023-03-18T06:56:12;99608.59;;;10.86;89.18
59825;BME280;45703;50.898;6.054;2023-03-18T06:58:40;99608.91;;;10.90;90.14
59825;BME280;45703;50.898;6.054;2023-03-18T07:01:06;99619.94;;;10.93;91.38
59825;BME280;45703;50.898;6.054;2023-03-18T07:03:32;99607.97;;;10.96;90.32
59825;BME280;45703;50.898;6.054;2023-03-18T07:05:58;99601.81;;;10.95;91.83
59825;BME280;45703;50.898;6.054;2023-03-18T07:08:24;99614.78;;;11.03;90.38
59825;BME280;45703;50.898;6.054;2023-03-18T07:10:53;99602.84;;;11.06;90.77
59825;BME280;45703;50.898;6.054;2023-03-18T07:13:18;99605.91;;;11.14;91.00
59825;BME280;45703;50.898;6.054;2023-03-18T07:15:44;99599.59;;;11.20;90.71
59825;BME280;45703;50.898;6.054;2023-03-18T07:18:10;99607.00;;;11.30;90.62
59825;BME280;45703;50.898;6.054;2023-03-18T07:20:36;99613.56;;;11.39;90.33
59825;BME280;45703;50.898;6.054;2023-03-18T07:23:02;99619.66;;;11.50;89.48
59825;BME280;45703;50.898;6.054;2023-03-18T07:25:28;99606.25;;;11.62;87.83
59825;BME280;45703;50.898;6.054;2023-03-18T07:27:56;99612.78;;;11.71;87.38
59825;BME280;45703;50.898;6.054;2023-03-18T07:30:21;99614.81;;;11.80;87.39
59825;BME280;45703;50.898;6.054;2023-03-18T07:32:47;99607.94;;;11.84;87.96
59825;BME280;45703;50.898;6.054;2023-03-18T07:35:14;99605.34;;;11.89;87.27
59825;BME280;45703;50.898;6.054;2023-03-18T07:37:40;99631.84;;;12.07;86.95
59825;BME280;45703;50.898;6.054;2023-03-18T07:40:07;99626.06;;;12.15;85.99
59825;BME280;45703;50.898;6.054;2023-03-18T07:42:32;99625.56;;;12.18;86.02
59825;BME280;45703;50.898;6.054;2023-03-18T07:44:58;99636.41;;;12.28;85.37
59825;BME280;45703;50.898;6.054;2023-03-18T07:47:23;99632.81;;;12.39;84.82
59825;BME280;45703;50.898;6.054;2023-03-18T07:49:49;99632.94;;;12.49;84.36
59825;BME280;45703;50.898;6.054;2023-03-18T07:52:18;99636.63;;;12.65;84.73
59825;BME280;45703;50.898;6.054;2023-03-18T07:54:43;99645.28;;;12.72;84.37
59825;BME280;45703;50.898;6.054;2023-03-18T07:57:09;99635.47;;;12.77;83.83
59825;BME280;45703;50.898;6.054;2023-03-18T07:59:35;99650.03;;;12.86;83.13
59825;BME280;45703;50.898;6.054;2023-03-18T08:02:02;99647.41;;;12.91;83.09
59825;BME280;45703;50.898;6.054;2023-03-18T08:04:30;99642.03;;;12.91;83.15
59825;BME280;45703;50.898;6.054;2023-03-18T08:06:55;99648.31;;;12.97;82.72
59825;BME280;45703;50.898;6.054;2023-03-18T08:09:22;99653.97;;;13.00;82.68
59825;BME280;45703;50.898;6.054;2023-03-18T08:11:48;99644.41;;;13.04;83.25
59825;BME280;45703;50.898;6.054;2023-03-18T08:14:13;99651.44;;;13.10;83.04
59825;BME280;45703;50.898;6.054;2023-03-18T08:16:39;99641.81;;;13.14;82.81
59825;BME280;45703;50.898;6.054;2023-03-18T08:19:04;99641.59;;;13.20;82.76
59825;BME280;45703;50.898;6.054;2023-03-18T08:21:30;99652.69;;;13.29;82.82
59825;BME280;45703;50.898;6.054;2023-03-18T08:23:56;99649.00;;;13.35;82.31
59825;BME280;45703;50.898;6.054;2023-03-18T08:26:21;99650.13;;;13.39;82.27
59825;BME280;45703;50.898;6.054;2023-03-18T08:28:47;99652.84;;;13.44;81.77
59825;BME280;45703;50.898;6.054;2023-03-18T08:31:12;99653.94;;;13.48;81.17
59825;BME280;45703;50.898;6.054;2023-03-18T08:33:38;99652.97;;;13.54;81.27
59825;BME280;45703;50.898;6.054;2023-03-18T08:36:04;99653.81;;;13.59;80.47
59825;BME280;45703;50.898;6.054;2023-03-18T08:38:30;99650.88;;;13.61;80.69
59825;BME280;45703;50.898;6.054;2023-03-18T08:40:56;99659.00;;;13.71;80.65
59825;BME280;45703;50.898;6.054;2023-03-18T08:43:22;99656.06;;;13.72;80.69
59825;BME280;45703;50.898;6.054;2023-03-18T08:45:55;99658.56;;;13.84;80.60
59825;BME280;45703;50.898;6.054;2023-03-18T08:48:24;99659.69;;;13.88;80.44
59825;BME280;45703;50.898;6.054;2023-03-18T08:50:50;99665.63;;;13.95;79.60
59825;BME280;45703;50.898;6.054;2023-03-18T08:53:17;99668.13;;;14.01;79.56
59825;BME280;45703;50.898;6.054;2023-03-18T08:55:42;99656.88;;;14.04;79.13
59825;BME280;45703;50.898;6.054;2023-03-18T08:58:09;99652.88;;;14.07;79.43
59825;BME280;45703;50.898;6.054;2023-03-18T09:00:36;99653.41;;;14.09;78.95
59825;BME280;45703;50.898;6.054;2023-03-18T09:03:03;99660.47;;;14.15;78.59
59825;BME280;45703;50.898;6.054;2023-03-18T09:05:28;99651.00;;;14.12;78.42
59825;BME280;45703;50.898;6.054;2023-03-18T09:07:55;99652.44;;;14.20;78.41
59825;BME280;45703;50.898;6.054;2023-03-18T09:10:20;99656.78;;;14.26;78.58
59825;BME280;45703;50.898;6.054;2023-03-18T09:12:46;99651.97;;;14.28;78.72
59825;BME280;45703;50.898;6.054;2023-03-18T09:15:13;99665.44;;;14.38;78.06
59825;BME280;45703;50.898;6.054;2023-03-18T09:17:39;99660.66;;;14.44;77.95
59825;BME280;45703;50.898;6.054;2023-03-18T09:20:10;99657.75;;;14.51;77.38
59825;BME280;45703;50.898;6.054;2023-03-18T09:22:37;99652.09;;;14.52;76.70
59825;BME280;45703;50.898;6.054;2023-03-18T09:25:03;99659.13;;;14.58;75.36
59825;BME280;45703;50.898;6.054;2023-03-18T09:27:30;99660.25;;;14.67;76.83
59825;BME280;45703;50.898;6.054;2023-03-18T09:29:55;99663.22;;;14.71;75.46
59825;BME280;45703;50.898;6.054;2023-03-18T09:32:21;99667.28;;;14.78;75.85
59825;BME280;45703;50.898;6.054;2023-03-18T09:34:47;99679.66;;;14.84;75.46
59825;BME280;45703;50.898;6.054;2023-03-18T09:37:12;99665.72;;;14.87;76.30
59825;BME280;45703;50.898;6.054;2023-03-18T09:39:39;99673.81;;;14.97;75.83
59825;BME280;45703;50.898;6.054;2023-03-18T09:42:25;99668.44;;;15.02;75.43
59825;BME280;45703;50.898;6.054;2023-03-18T09:44:58;99671.72;;;15.09;75.39
59825;BME280;45703;50.898;6.054;2023-03-18T09:57:54;99657.25;;;15.25;73.08
59825;BME280;45703;50.898;6.054;2023-03-18T10:00:29;99665.34;;;15.30;72.77
59825;BME280;45703;50.898;6.054;2023-03-18T10:03:02;99662.66;;;15.35;73.61
59825;BME280;45703;50.898;6.054;2023-03-18T10:05:52;99655.97;;;15.33;72.12
59825;BME280;45703;50.898;6.054;2023-03-18T10:11:03;99658.84;;;15.26;71.93
59825;BME280;45703;50.898;6.054;2023-03-18T10:13:39;99663.41;;;15.26;72.57
59825;BME280;45703;50.898;6.054;2023-03-18T10:16:11;99665.59;;;15.29;72.47
59825;BME280;45703;50.898;6.054;2023-03-18T10:18:40;99664.81;;;15.28;72.01
59825;BME280;45703;50.898;6.054;2023-03-18T10:27:19;99673.47;;;15.55;73.22
59825;BME280;45703;50.898;6.054;2023-03-18T10:29:56;99679.44;;;15.72;71.88
59825;BME280;45703;50.898;6.054;2023-03-18T10:38:04;99683.75;;;16.23;72.33
59825;BME280;45703;50.898;6.054;2023-03-18T10:40:37;99684.81;;;16.37;70.32
59825;BME280;45703;50.898;6.054;2023-03-18T10:43:13;99680.78;;;16.39;68.28
59825;BME280;45703;50.898;6.054;2023-03-18T10:45:42;99684.53;;;16.48;68.40
59825;BME280;45703;50.898;6.054;2023-03-18T10:50:55;99679.16;;;16.48;68.22
59825;BME280;45703;50.898;6.054;2023-03-18T10:53:31;99676.47;;;16.48;68.83
59825;BME280;45703;50.898;6.054;2023-03-18T10:56:10;99680.75;;;16.49;66.67
59825;BME280;45703;50.898;6.054;2023-03-18T10:58:36;99680.47;;;16.56;67.72
59825;BME280;45703;50.898;6.054;2023-03-18T11:01:08;99679.41;;;16.62;68.02
59825;BME280;45703;50.898;6.054;2023-03-18T11:03:40;99676.69;;;16.67;69.12
59825;BME280;45703;50.898;6.054;2023-03-18T11:06:25;99680.44;;;16.71;69.25
59825;BME280;45703;50.898;6.054;2023-03-18T11:09:05;99681.78;;;16.73;68.21
59825;BME280;45703;50.898;6.054;2023-03-18T11:11:33;99674.75;;;16.72;67.04
59825;BME280;45703;50.898;6.054;2023-03-18T11:14:01;99672.91;;;16.73;66.25
59825;BME280;45703;50.898;6.054;2023-03-18T11:16:38;99664.81;;;16.73;66.28
59825;BME280;45703;50.898;6.054;2023-03-18T11:19:28;99665.59;;;16.73;67.43
59825;BME280;45703;50.898;6.054;2023-03-18T11:22:14;99674.75;;;16.72;65.98
59825;BME280;45703;50.898;6.054;2023-03-18T11:24:43;99674.00;;;16.67;64.48
59825;BME280;45703;50.898;6.054;2023-03-18T11:29:43;99667.00;;;16.66;64.91
59825;BME280;45703;50.898;6.054;2023-03-18T11:32:31;99669.66;;;16.71;67.55
59825;BME280;45703;50.898;6.054;2023-03-18T11:34:59;99668.03;;;16.75;65.64
59825;BME280;45703;50.898;6.054;2023-03-18T11:37:33;99659.41;;;16.78;66.07
59825;BME280;45703;50.898;6.054;2023-03-18T11:40:21;99668.00;;;16.85;67.66
59825;BME280;45703;50.898;6.054;2023-03-18T11:42:53;99670.97;;;16.88;66.69
59825;BME280;45703;50.898;6.054;2023-03-18T11:47:52;99667.44;;;16.88;64.79
59825;BME280;45703;50.898;6.054;2023-03-18T11:50:24;99670.44;;;16.86;65.68
59825;BME280;45703;50.898;6.054;2023-03-18T11:53:00;99663.72;;;16.79;66.43
59825;BME280;45703;50.898;6.054;2023-03-18T12:07:23;99677.78;;;16.51;66.95
59825;BME280;45703;50.898;6.054;2023-03-18T12:10:00;99670.81;;;16.40;67.62
59825;BME280;45703;50.898;6.054;2023-03-18T12:13:00;99674.34;;;16.35;69.07
59825;BME280;45703;50.898;6.054;2023-03-18T12:18:26;99678.88;;;16.25;70.42
59825;BME280;45703;50.898;6.054;2023-03-18T12:26:52;99676.19;;;16.05;71.46
59825;BME280;45703;50.898;6.054;2023-03-18T12:34:58;99670.56;;;15.92;72.48
59825;BME280;45703;50.898;6.054;2023-03-18T12:40:01;99675.91;;;15.77;72.66
59825;BME280;45703;50.898;6.054;2023-03-18T12:45:37;99674.81;;;15.58;72.80
59825;BME280;45703;50.898;6.054;2023-03-18T12:48:17;99676.69;;;15.52;72.76
59825;BME280;45703;50.898;6.054;2023-03-18T12:50:50;99668.59;;;15.42;73.00
59825;BME280;45703;50.898;6.054;2023-03-18T12:53:29;99673.44;;;15.40;71.85
59825;BME280;45703;50.898;6.054;2023-03-18T12:56:11;99669.66;;;15.36;72.65
59825;BME280;45703;50.898;6.054;2023-03-18T12:58:51;99671.03;;;15.34;73.03
59825;BME280;45703;50.898;6.054;2023-03-18T13:01:21;99669.66;;;15.36;73.07
59825;BME280;45703;50.898;6.054;2023-03-18T13:03:58;99670.75;;;15.40;73.11
59825;BME280;45703;50.898;6.054;2023-03-18T13:06:36;99659.75;;;15.42;73.04
59825;BME280;45703;50.898;6.054;2023-03-18T13:17:31;99661.66;;;15.71;72.88
59825;BME280;45703;50.898;6.054;2023-03-18T13:20:00;99654.94;;;15.84;72.87
59825;BME280;45703;50.898;6.054;2023-03-18T13:25:17;99641.19;;;16.25;72.67
59825;BME280;45703;50.898;6.054;2023-03-18T13:30:34;99634.94;;;16.59;71.67
59825;BME280;45703;50.898;6.054;2023-03-18T13:44:26;99638.16;;;17.25;70.43
59825;BME280;45703;50.898;6.054;2023-03-18T13:47:01;99624.31;;;17.41;69.14
59825;BME280;45703;50.898;6.054;2023-03-18T13:49:29;99629.63;;;17.51;68.80
59825;BME280;45703;50.898;6.054;2023-03-18T13:52:00;99624.78;;;17.53;70.16
59825;BME280;45703;50.898;6.054;2023-03-18T13:54:36;99632.31;;;17.56;65.66
59825;BME280;45703;50.898;6.054;2023-03-18T13:59:43;99625.03;;;17.51;65.92
59825;BME280;45703;50.898;6.054;2023-03-18T14:04:54;99622.19;;;17.38;66.56
59825;BME280;45703;50.898;6.054;2023-03-18T14:07:23;99607.94;;;17.23;66.87
59825;BME280;45703;50.898;6.054;2023-03-18T14:12:37;99603.56;;;17.32;68.05
59825;BME280;45703;50.898;6.054;2023-03-18T14:17:42;99607.78;;;17.47;67.92
59825;BME280;45703;50.898;6.054;2023-03-18T14:22:39;99591.03;;;17.50;64.92
59825;BME280;45703;50.898;6.054;2023-03-18T14:27:52;99600.00;;;17.79;64.19
59825;BME280;45703;50.898;6.054;2023-03-18T14:33:14;99599.16;;;17.79;64.71
59825;BME280;45703;50.898;6.054;2023-03-18T14:36:09;99600.78;;;17.80;67.40
59825;BME280;45703;50.898;6.054;2023-03-18T14:39:01;99598.66;;;17.77;65.44
59825;BME280;45703;50.898;6.054;2023-03-18T14:41:34;99590.91;;;17.70;62.63
59825;BME280;45703;50.898;6.054;2023-03-18T14:46:45;99589.41;;;17.83;64.58
59825;BME280;45703;50.898;6.054;2023-03-18T14:49:50;99599.28;;;17.97;64.73
59825;BME280;45703;50.898;6.054;2023-03-18T14:52:30;99597.31;;;18.08;64.66
59825;BME280;45703;50.898;6.054;2023-03-18T14:55:00;99592.47;;;18.05;62.76
59825;BME280;45703;50.898;6.054;2023-03-18T14:57:27;99583.59;;;17.99;63.47
59825;BME280;45703;50.898;6.054;2023-03-18T14:59:58;99602.06;;;17.87;62.76
59825;BME280;45703;50.898;6.054;2023-03-18T15:02:33;99593.06;;;17.68;62.69
59825;BME280;45703;50.898;6.054;2023-03-18T15:05:01;99583.47;;;17.52;62.85
59825;BME280;45703;50.898;6.054;2023-03-18T15:07:36;99592.09;;;17.54;65.40